Time;durP1;ratioP1;P1;durP2;ratioP2;P2;SDS_P1;SDS_P2;PMS_P1;PMS_P2;Temp;Humidity;BMP_temperature;BMP_pressure;BME280_temperature;BME280_humidity;BME280_pressure;Samples;Min_cycle;Max_cycle;Signal;HPM_P1;HPM_P2
2022/03/22 00:01:10;;;;;;;23.73;21.30;;;;;;;;;;12548054;28;20363;-78
2022/03/22 00:07:12;;;;;;;23.13;20.20;;;;;;;;;;12547552;28;20040;-78
2022/03/22 00:13:14;;;;;;;24.75;22.20;;;;;;;;;;12561745;28;20057;-78
2022/03/22 00:19:16;;;;;;;19.35;17.45;;;;;;;;;;12529106;28;20028;-78
2022/03/22 00:25:17;;;;;;;17.88;16.17;;;;;;;;;;12546419;28;20385;-78
2022/03/22 00:31:19;;;;;;;16.52;14.95;;;;;;;;;;12546905;28;20041;-78
2022/03/22 00:37:21;;;;;;;16.67;15.13;;;;;;;;;;12546535;28;20406;-78
2022/03/22 00:43:24;;;;;;;16.42;14.85;;;;;;;;;;12547110;28;20052;-78
2022/03/22 00:49:25;;;;;;;17.13;15.48;;;;;;;;;;12544793;28;20040;-77
2022/03/22 00:55:27;;;;;;;16.23;14.73;;;;;;;;;;12544481;28;20037;-79
2022/03/22 01:01:29;;;;;;;15.52;13.93;;;;;;;;;;12559025;28;20042;-77
2022/03/22 01:07:33;;;;;;;13.40;12.13;;;;;;;;;;12566552;28;20037;-77
2022/03/22 01:13:35;;;;;;;14.85;13.45;;;;;;;;;;12544043;28;20414;-78
2022/03/22 01:19:39;;;;;;;14.33;13.03;;;;;;;;;;12527011;28;20385;-78
2022/03/22 01:25:41;;;;;;;12.35;11.18;;;;;;;;;;12543221;28;20032;-78
2022/03/22 01:31:44;;;;;;;13.33;12.03;;;;;;;;;;12543413;28;20504;-78
2022/03/22 01:37:49;;;;;;;;;;;;;;;;;;12559763;28;20041;-78
2022/03/22 01:43:50;;;;;;;11.57;10.45;;;;;;;;;;12542867;28;19984;-78
2022/03/22 01:49:52;;;;;;;11.57;10.45;;;;;;;;;;12548640;28;20048;-78
2022/03/22 01:55:54;;;;;;;12.57;11.43;;;;;;;;;;12543787;28;20033;-77
2022/03/22 02:08:18;;;;;;;8.77;7.97;;;;;;;;;;12557597;28;20056;-78
2022/03/22 02:14:20;;;;;;;10.80;9.80;;;;;;;;;;12541055;28;20057;-78
2022/03/22 02:20:22;;;;;;;9.38;8.57;;;;;;;;;;12540072;28;20066;-77
2022/03/22 02:26:25;;;;;;;9.45;8.55;;;;;;;;;;12541295;28;20041;-77
2022/03/22 02:32:27;;;;;;;9.15;8.35;;;;;;;;;;12540616;28;20040;-77
2022/03/22 02:38:28;;;;;;;8.32;7.53;;;;;;;;;;12540940;28;20033;-77
2022/03/22 02:44:30;;;;;;;8.35;7.65;;;;;;;;;;12545170;28;20036;-79
2022/03/22 02:50:32;;;;;;;7.53;6.82;;;;;;;;;;12551927;28;20497;-78
2022/03/22 02:56:33;;;;;;;7.13;6.53;;;;;;;;;;12552734;28;20048;-78
2022/03/22 03:02:42;;;;;;;7.40;6.78;;;;;;;;;;12550715;28;20033;-78
2022/03/22 03:08:47;;;;;;;7.70;7.00;;;;;;;;;;12550378;28;20048;-77
2022/03/22 03:14:49;;;;;;;7.03;6.32;;;;;;;;;;12548659;28;20057;-77
2022/03/22 03:20:50;;;;;;;5.93;5.32;;;;;;;;;;12549496;28;20037;-78
2022/03/22 03:26:52;;;;;;;6.15;5.55;;;;;;;;;;12549430;28;20068;-78
2022/03/22 03:32:54;;;;;;;6.70;6.10;;;;;;;;;;12549132;28;20041;-77
2022/03/22 03:38:55;;;;;;;6.65;5.75;;;;;;;;;;12547593;28;20068;-78
2022/03/22 03:51:19;;;;;;;5.15;4.75;;;;;;;;;;12546815;28;20063;-77
2022/03/22 03:57:21;;;;;;;4.18;3.88;;;;;;;;;;12546423;28;20033;-77
2022/03/22 04:03:23;;;;;;;7.77;5.27;;;;;;;;;;12546319;28;20052;-77
2022/03/22 04:09:24;;;;;;;5.55;5.03;;;;;;;;;;12547278;28;20295;-78
2022/03/22 04:15:27;;;;;;;5.82;5.32;;;;;;;;;;12546248;28;20056;-80
2022/03/22 04:21:29;;;;;;;5.68;5.15;;;;;;;;;;12547126;28;20025;-80
2022/03/22 04:33:51;;;;;;;4.45;4.05;;;;;;;;;;12544694;28;20037;-80
2022/03/22 04:39:53;;;;;;;5.75;5.25;;;;;;;;;;12544693;28;20033;-79
2022/03/22 04:45:55;;;;;;;5.60;5.10;;;;;;;;;;12527849;28;20040;-79
2022/03/22 04:58:17;;;;;;;6.60;5.68;;;;;;;;;;12545177;28;20024;-79
2022/03/22 05:04:19;;;;;;;5.57;5.07;;;;;;;;;;12543305;28;20055;-80
2022/03/22 05:10:21;;;;;;;6.05;5.53;;;;;;;;;;12547416;28;20045;-80
2022/03/22 05:16:23;;;;;;;6.43;5.82;;;;;;;;;;12544944;28;20049;-80
2022/03/22 05:22:26;;;;;;;6.32;5.72;;;;;;;;;;12544212;28;20025;-80
2022/03/22 05:28:27;;;;;;;6.57;5.97;;;;;;;;;;12544002;28;20492;-79
2022/03/22 05:34:30;;;;;;;7.45;6.75;;;;;;;;;;12525872;28;20032;-79
2022/03/22 05:40:32;;;;;;;6.47;5.88;;;;;;;;;;12530517;28;20528;-79
2022/03/22 05:46:35;;;;;;;7.05;6.43;;;;;;;;;;12543861;28;20112;-78
2022/03/22 05:52:41;;;;;;;7.10;6.43;;;;;;;;;;12542564;28;20044;-78
2022/03/22 05:58:43;;;;;;;8.00;7.20;;;;;;;;;;12540999;28;20517;-79
2022/03/22 06:04:45;;;;;;;8.40;7.63;;;;;;;;;;12566550;28;20032;-78
2022/03/22 06:10:47;;;;;;;7.95;7.18;;;;;;;;;;12590646;28;20052;-79
2022/03/22 06:16:48;;;;;;;6.95;6.32;;;;;;;;;;12590679;28;20052;-78
2022/03/22 06:22:50;;;;;;;8.00;7.30;;;;;;;;;;12588906;28;20037;-77
2022/03/22 06:28:52;;;;;;;9.75;8.02;;;;;;;;;;12590481;28;20048;-78
2022/03/22 06:34:54;;;;;;;7.25;6.55;;;;;;;;;;12588973;28;20044;-76
2022/03/22 06:40:56;;;;;;;7.80;7.00;;;;;;;;;;12575472;28;20374;-76
2022/03/22 06:46:57;;;;;;;8.63;7.82;;;;;;;;;;12552151;28;20409;-77
2022/03/22 06:52:59;;;;;;;9.43;8.52;;;;;;;;;;12550025;28;20059;-79
2022/03/22 06:59:01;;;;;;;7.90;7.10;;;;;;;;;;12546737;28;20032;-79
2022/03/22 07:05:03;;;;;;;8.55;7.72;;;;;;;;;;12559933;28;20042;-78
2022/03/22 07:17:25;;;;;;;8.68;7.90;;;;;;;;;;12555055;28;20028;-81
2022/03/22 07:23:27;;;;;;;9.85;8.85;;;;;;;;;;12547964;28;20029;-79
2022/03/22 07:29:29;;;;;;;10.23;8.90;;;;;;;;;;12548112;28;20045;-80
2022/03/22 07:35:32;;;;;;;8.35;7.60;;;;;;;;;;12573168;28;20051;-80
2022/03/22 07:41:34;;;;;;;9.05;8.15;;;;;;;;;;12546083;28;20040;-79
2022/03/22 07:47:37;;;;;;;8.70;8.00;;;;;;;;;;12564145;28;20033;-81
2022/03/22 07:53:38;;;;;;;9.13;8.27;;;;;;;;;;12565869;28;20052;-81
2022/03/22 07:59:40;;;;;;;10.00;9.00;;;;;;;;;;12555557;28;20762;-80
2022/03/22 08:05:45;;;;;;;10.00;9.10;;;;;;;;;;12572298;28;20056;-80
2022/03/22 08:11:47;;;;;;;8.45;7.55;;;;;;;;;;12536995;28;20063;-79
2022/03/22 08:17:48;;;;;;;7.80;7.00;;;;;;;;;;12568518;28;20394;-79
2022/03/22 08:23:50;;;;;;;8.27;6.50;;;;;;;;;;12572940;28;20035;-78
2022/03/22 08:29:52;;;;;;;8.48;7.65;;;;;;;;;;12542327;28;20037;-78
2022/03/22 08:35:54;;;;;;;8.85;7.72;;;;;;;;;;12561406;28;20658;-79
2022/03/22 08:41:55;;;;;;;8.65;7.75;;;;;;;;;;12566891;28;20041;-79
2022/03/22 08:47:58;;;;;;;8.98;8.02;;;;;;;;;;12572193;28;20032;-79
2022/03/22 08:53:59;;;;;;;8.10;7.30;;;;;;;;;;12566865;28;20485;-79
2022/03/22 09:00:05;;;;;;;8.53;7.30;;;;;;;;;;12567441;28;20025;-79
2022/03/22 09:06:07;;;;;;;7.95;7.15;;;;;;;;;;12561291;28;20047;-79
2022/03/22 09:12:11;;;;;;;7.63;6.60;;;;;;;;;;12540602;28;20064;-79
2022/03/22 09:18:13;;;;;;;8.65;7.75;;;;;;;;;;12539362;28;20033;-80
2022/03/22 09:24:15;;;;;;;;;;;;;;;;;;12554933;28;20029;-82
2022/03/22 09:30:17;;;;;;;7.97;7.18;;;;;;;;;;12534102;28;20377;-81
2022/03/22 09:36:20;;;;;;;7.60;6.80;;;;;;;;;;12553409;28;20024;-79
2022/03/22 09:42:21;;;;;;;7.18;6.55;;;;;;;;;;12533595;28;20044;-77
2022/03/22 09:48:23;;;;;;;9.20;7.25;;;;;;;;;;12557269;28;20350;-79
2022/03/22 09:54:25;;;;;;;7.60;6.27;;;;;;;;;;12542098;28;20040;-80
2022/03/22 10:00:27;;;;;;;8.73;7.80;;;;;;;;;;12556325;28;20486;-79
2022/03/22 10:06:29;;;;;;;7.80;6.93;;;;;;;;;;12588083;28;20029;-83
2022/03/22 10:12:32;;;;;;;12.20;10.13;;;;;;;;;;12586171;28;20055;-81
2022/03/22 10:18:35;;;;;;;10.60;9.40;;;;;;;;;;12615872;28;20031;-78
2022/03/22 10:24:49;;;;;;;13.93;9.50;;;;;;;;;;12612818;28;20047;-80
2022/03/22 10:30:56;;;;;;;7.72;7.00;;;;;;;;;;12562907;28;20493;-80
2022/03/22 10:36:58;;;;;;;7.57;6.78;;;;;;;;;;12537152;28;20049;-80
2022/03/22 10:43:01;;;;;;;9.07;7.80;;;;;;;;;;12544079;28;20052;-80
2022/03/22 10:49:09;;;;;;;9.10;6.47;;;;;;;;;;12570366;28;20457;-81
2022/03/22 10:55:11;;;;;;;9.07;7.63;;;;;;;;;;12558779;28;20029;-81
2022/03/22 11:01:14;;;;;;;8.50;7.47;;;;;;;;;;12571270;28;20028;-81
2022/03/22 11:07:16;;;;;;;7.40;6.47;;;;;;;;;;12561872;28;20036;-81
2022/03/22 11:13:18;;;;;;;8.07;7.28;;;;;;;;;;12574732;28;20055;-80
2022/03/22 11:19:20;;;;;;;8.77;7.95;;;;;;;;;;12564225;28;20033;-79
2022/03/22 11:25:36;;;;;;;7.73;6.97;;;;;;;;;;12565656;28;20031;-80
2022/03/22 11:31:40;;;;;;;9.25;7.78;;;;;;;;;;12549129;28;20029;-81
2022/03/22 11:37:42;;;;;;;8.07;7.28;;;;;;;;;;12559148;28;20040;-81
2022/03/22 11:43:44;;;;;;;7.57;6.87;;;;;;;;;;12564223;28;20040;-80
2022/03/22 11:49:52;;;;;;;7.77;7.07;;;;;;;;;;12570964;28;20044;-79
2022/03/22 11:55:57;;;;;;;9.38;7.28;;;;;;;;;;12578955;28;20017;-81
2022/03/22 12:02:00;;;;;;;8.35;7.53;;;;;;;;;;12560768;28;20029;-80
2022/03/22 12:08:09;;;;;;;8.65;7.85;;;;;;;;;;12566915;28;20043;-81
2022/03/22 12:14:10;;;;;;;10.60;7.45;;;;;;;;;;12583975;28;20053;-78
2022/03/22 12:20:13;;;;;;;10.10;7.70;;;;;;;;;;12551511;28;20025;-78
2022/03/22 12:26:16;;;;;;;9.05;8.20;;;;;;;;;;12560795;28;20041;-77
2022/03/22 12:32:21;;;;;;;6.90;6.17;;;;;;;;;;12590055;28;20398;-77
2022/03/22 12:38:22;;;;;;;9.00;7.55;;;;;;;;;;12567299;28;20040;-79
2022/03/22 12:44:25;;;;;;;9.07;7.32;;;;;;;;;;12549697;28;20381;-76
2022/03/22 12:50:28;;;;;;;6.25;5.65;;;;;;;;;;12549072;28;20049;-80
2022/03/22 12:56:31;;;;;;;7.78;6.97;;;;;;;;;;12548724;28;20051;-76
2022/03/22 13:02:33;;;;;;;7.18;6.30;;;;;;;;;;12550185;28;20037;-78
2022/03/22 13:15:21;;;;;;;6.93;6.22;;;;;;;;;;12547821;28;20056;-77
2022/03/22 13:21:24;;;;;;;5.97;5.38;;;;;;;;;;12545084;28;20131;-75
2022/03/22 13:27:25;;;;;;;;;;;;;;;;;;12547232;28;20028;-75
2022/03/22 13:33:33;;;;;;;5.75;5.20;;;;;;;;;;12545508;28;19923;-78
2022/03/22 13:39:35;;;;;;;4.43;4.03;;;;;;;;;;12528673;28;20047;-76
2022/03/22 13:45:41;;;;;;;6.30;5.68;;;;;;;;;;12545850;28;20025;-78
2022/03/22 13:51:42;;;;;;;5.82;4.60;;;;;;;;;;12546209;28;20496;-76
2022/03/22 13:57:47;;;;;;;6.60;5.50;;;;;;;;;;12545783;28;20040;-78
2022/03/22 14:03:52;;;;;;;6.55;5.60;;;;;;;;;;12545287;28;20508;-79
2022/03/22 14:09:53;;;;;;;6.00;5.40;;;;;;;;;;12527238;28;20037;-75
2022/03/22 14:15:56;;;;;;;4.50;4.10;;;;;;;;;;12545472;28;20429;-78
2022/03/22 14:21:58;;;;;;;5.80;4.93;;;;;;;;;;12543386;28;20033;-79
2022/03/22 14:28:02;;;;;;;5.22;4.72;;;;;;;;;;12545437;28;20409;-78
2022/03/22 14:34:03;;;;;;;;;;;;;;;;;;12544712;28;20045;-79
2022/03/22 14:40:05;;;;;;;6.30;5.70;;;;;;;;;;12525867;28;20349;-76
2022/03/22 14:46:09;;;;;;;6.05;5.15;;;;;;;;;;12527009;28;20041;-79
2022/03/22 14:58:52;;;;;;;5.43;4.93;;;;;;;;;;12543584;28;20040;-76
2022/03/22 15:04:54;;;;;;;4.25;3.83;;;;;;;;;;12543817;28;20033;-78
2022/03/22 15:10:56;;;;;;;3.93;3.57;;;;;;;;;;12543791;28;20105;-76
2022/03/22 15:16:58;;;;;;;4.65;4.25;;;;;;;;;;12541978;28;20072;-76
2022/03/22 15:23:00;;;;;;;4.37;4.03;;;;;;;;;;12541735;28;20578;-76
2022/03/22 15:29:02;;;;;;;4.10;3.70;;;;;;;;;;12541203;28;20045;-76
2022/03/22 15:35:05;;;;;;;4.85;3.88;;;;;;;;;;12542330;28;20040;-76
2022/03/22 15:41:07;;;;;;;3.83;3.53;;;;;;;;;;12541821;28;20381;-76
2022/03/22 15:47:09;;;;;;;4.15;3.75;;;;;;;;;;12551086;28;20498;-76
2022/03/22 15:53:10;;;;;;;3.93;3.50;;;;;;;;;;12530379;28;20448;-76
2022/03/22 15:59:12;;;;;;;3.43;3.10;;;;;;;;;;12547708;28;20036;-76
2022/03/22 16:05:14;;;;;;;3.07;2.50;;;;;;;;;;12545486;28;20033;-76
2022/03/22 16:11:16;;;;;;;4.03;3.63;;;;;;;;;;12546464;28;20048;-76
2022/03/22 16:17:18;;;;;;;3.97;3.63;;;;;;;;;;12545330;28;20049;-76
2022/03/22 16:23:20;;;;;;;3.70;3.28;;;;;;;;;;12544328;28;20037;-76
2022/03/22 16:29:23;;;;;;;5.65;3.92;;;;;;;;;;12545187;28;20041;-76
2022/03/22 16:41:47;;;;;;;3.30;3.00;;;;;;;;;;12545232;28;20037;-76
2022/03/22 16:47:49;;;;;;;3.97;3.20;;;;;;;;;;12543186;28;20489;-77
2022/03/22 16:53:51;;;;;;;3.78;3.20;;;;;;;;;;12526185;28;20048;-77
2022/03/22 16:59:53;;;;;;;3.33;3.03;;;;;;;;;;12543963;28;20075;-78
2022/03/22 17:05:54;;;;;;;4.22;3.60;;;;;;;;;;12537204;28;20025;-81
2022/03/22 17:11:56;;;;;;;3.95;3.53;;;;;;;;;;12548562;28;20048;-81
2022/03/22 17:17:59;;;;;;;4.57;3.60;;;;;;;;;;12526571;28;20037;-78
2022/03/22 17:24:01;;;;;;;3.60;2.80;;;;;;;;;;12541794;28;20044;-78
2022/03/22 17:30:03;;;;;;;3.90;3.50;;;;;;;;;;12544887;28;20047;-79
2022/03/22 17:36:05;;;;;;;5.93;3.50;;;;;;;;;;12541396;28;20043;-77
2022/03/22 17:42:07;;;;;;;7.63;4.53;;;;;;;;;;12551342;28;20037;-78
2022/03/22 17:48:09;;;;;;;6.88;4.03;;;;;;;;;;12541394;28;20036;-78
2022/03/22 17:54:11;;;;;;;8.98;6.78;;;;;;;;;;12541900;28;20048;-78
2022/03/22 18:00:13;;;;;;;5.30;4.80;;;;;;;;;;12541422;28;20414;-79
2022/03/22 18:06:16;;;;;;;9.32;6.05;;;;;;;;;;12541124;28;20041;-79
2022/03/22 18:12:18;;;;;;;5.82;5.22;;;;;;;;;;12539514;28;20049;-79
2022/03/22 18:18:23;;;;;;;9.57;8.38;;;;;;;;;;12539656;28;20028;-79
2022/03/22 18:24:26;;;;;;;10.63;7.10;;;;;;;;;;12523271;28;20044;-81
2022/03/22 18:30:28;;;;;;;;;;;;;;;;;;12539140;28;20048;-78
2022/03/22 18:36:30;;;;;;;10.05;6.75;;;;;;;;;;12541437;28;20014;-80
2022/03/22 18:42:34;;;;;;;9.48;8.52;;;;;;;;;;12538898;28;20029;-83
2022/03/22 18:48:37;;;;;;;9.75;7.68;;;;;;;;;;12540878;28;20267;-81
2022/03/22 18:54:38;;;;;;;;;;;;;;;;;;12554186;28;20410;-79
2022/03/22 19:00:40;;;;;;;11.35;8.48;;;;;;;;;;12539159;28;19919;-79
2022/03/22 19:07:01;;;;;;;11.68;7.72;;;;;;;;;;12546318;28;20047;-78
2022/03/22 19:13:02;;;;;;;7.88;6.55;;;;;;;;;;12539762;28;20045;-78
2022/03/22 19:19:04;;;;;;;9.60;7.97;;;;;;;;;;12593060;28;20428;-79
2022/03/22 19:25:06;;;;;;;11.10;9.03;;;;;;;;;;12589789;28;20043;-77
2022/03/22 19:37:42;;;;;;;11.70;10.43;;;;;;;;;;12584848;28;20063;-75
2022/03/22 19:43:46;;;;;;;12.27;11.07;;;;;;;;;;12598660;28;20025;-79
2022/03/22 19:49:51;;;;;;;11.52;10.32;;;;;;;;;;12598147;28;20052;-79
2022/03/22 19:55:53;;;;;;;12.48;10.85;;;;;;;;;;12597914;28;20036;-76
2022/03/22 20:01:54;;;;;;;13.63;12.20;;;;;;;;;;12597077;28;20058;-77
2022/03/22 20:07:57;;;;;;;12.80;11.45;;;;;;;;;;12579298;28;20032;-76
2022/03/22 20:13:59;;;;;;;15.55;12.77;;;;;;;;;;12597278;28;20052;-77
2022/03/22 20:20:01;;;;;;;14.93;13.00;;;;;;;;;;12578714;28;20040;-76
2022/03/22 20:26:03;;;;;;;18.38;14.93;;;;;;;;;;12604431;28;20025;-76
2022/03/22 20:32:05;;;;;;;13.57;12.13;;;;;;;;;;12596263;28;20044;-76
2022/03/22 20:38:07;;;;;;;16.23;14.30;;;;;;;;;;12596308;28;20033;-78
2022/03/22 20:44:09;;;;;;;18.90;16.40;;;;;;;;;;12579713;28;20032;-79
2022/03/22 20:50:11;;;;;;;19.47;16.90;;;;;;;;;;12595953;28;20059;-77
2022/03/22 21:02:34;;;;;;;17.58;15.70;;;;;;;;;;12595519;28;20047;-77
2022/03/22 21:08:35;;;;;;;17.00;15.25;;;;;;;;;;12593874;28;20370;-77
2022/03/22 21:14:38;;;;;;;16.27;14.68;;;;;;;;;;12593987;28;20517;-77
2022/03/22 21:20:39;;;;;;;20.38;17.50;;;;;;;;;;12595064;28;20036;-77
2022/03/22 21:26:41;;;;;;;19.35;17.40;;;;;;;;;;12600209;28;20037;-76
2022/03/22 21:32:43;;;;;;;22.08;18.48;;;;;;;;;;12594176;28;20055;-79
2022/03/22 21:38:45;;;;;;;20.00;17.77;;;;;;;;;;12594840;28;20032;-79
2022/03/22 21:44:47;;;;;;;22.30;17.90;;;;;;;;;;12593784;28;20045;-76
2022/03/22 21:50:49;;;;;;;19.08;17.13;;;;;;;;;;12592247;28;20037;-79
2022/03/22 21:56:50;;;;;;;20.60;18.38;;;;;;;;;;12596759;28;20044;-76
2022/03/22 22:02:52;;;;;;;22.83;19.38;;;;;;;;;;12591169;28;20032;-79
2022/03/22 22:08:54;;;;;;;28.90;25.70;;;;;;;;;;12593489;28;20040;-79
2022/03/22 22:14:56;;;;;;;21.80;19.67;;;;;;;;;;12593433;28;20060;-79
2022/03/22 22:20:58;;;;;;;22.93;20.50;;;;;;;;;;12591625;28;20033;-79
2022/03/22 22:26:59;;;;;;;25.13;21.23;;;;;;;;;;12595681;28;20032;-78
2022/03/22 22:39:21;;;;;;;22.92;20.58;;;;;;;;;;12592055;28;20037;-77
2022/03/22 22:45:24;;;;;;;23.88;21.42;;;;;;;;;;12593215;28;20033;-77
2022/03/22 22:51:26;;;;;;;;;;;;;;;;;;12590777;28;20036;-77
2022/03/22 22:57:27;;;;;;;25.38;22.73;;;;;;;;;;12591972;28;19908;-76
2022/03/22 23:03:35;;;;;;;24.73;22.20;;;;;;;;;;12596500;28;20028;-80
2022/03/22 23:15:57;;;;;;;24.95;22.48;;;;;;;;;;12600408;28;20057;-79
2022/03/22 23:21:59;;;;;;;24.50;22.00;;;;;;;;;;12600301;28;20028;-79
2022/03/22 23:28:01;;;;;;;25.23;22.63;;;;;;;;;;12600368;28;20040;-78
2022/03/22 23:34:03;;;;;;;25.75;23.08;;;;;;;;;;12549955;28;20057;-76
2022/03/22 23:40:05;;;;;;;24.77;22.25;;;;;;;;;;12549832;28;20029;-76
2022/03/22 23:46:07;;;;;;;24.13;21.75;;;;;;;;;;12550050;28;20508;-76
2022/03/22 23:52:08;;;;;;;20.75;18.83;;;;;;;;;;12550997;28;20033;-76
2022/03/22 23:58:10;;;;;;;22.65;20.48;;;;;;;;;;12555861;28;20052;-78
